sensor_id;sensor_type;location;lat;lon;timestamp;temperature;humidity
33476;DHT22;19814;48.224;11.422;2023-10-13T00:01:59;17.40;81.20
33476;DHT22;19814;48.224;11.422;2023-10-13T00:04:25;17.40;80.70
33476;DHT22;19814;48.224;11.422;2023-10-13T00:06:52;17.40;81.00
33476;DHT22;19814;48.224;11.422;2023-10-13T00:09:25;17.40;81.80
33476;DHT22;19814;48.224;11.422;2023-10-13T00:11:55;17.40;82.10
33476;DHT22;19814;48.224;11.422;2023-10-13T00:14:22;17.40;82.20
33476;DHT22;19814;48.224;11.422;2023-10-13T00:16:48;17.40;82.20
33476;DHT22;19814;48.224;11.422;2023-10-13T00:19:36;17.40;81.90
33476;DHT22;19814;48.224;11.422;2023-10-13T00:22:13;17.30;82.30
33476;DHT22;19814;48.224;11.422;2023-10-13T00:24:42;17.30;83.00
33476;DHT22;19814;48.224;11.422;2023-10-13T00:27:10;17.20;83.60
33476;DHT22;19814;48.224;11.422;2023-10-13T00:29:50;17.20;83.80
33476;DHT22;19814;48.224;11.422;2023-10-13T00:32:16;17.20;84.30
33476;DHT22;19814;48.224;11.422;2023-10-13T00:34:48;17.10;84.70
33476;DHT22;19814;48.224;11.422;2023-10-13T00:37:13;17.10;84.80
33476;DHT22;19814;48.224;11.422;2023-10-13T00:39:52;17.00;84.60
33476;DHT22;19814;48.224;11.422;2023-10-13T00:42:22;17.00;84.80
33476;DHT22;19814;48.224;11.422;2023-10-13T00:44:56;16.90;85.00
33476;DHT22;19814;48.224;11.422;2023-10-13T00:47:21;16.90;85.50
33476;DHT22;19814;48.224;11.422;2023-10-13T00:50:10;16.80;85.30
33476;DHT22;19814;48.224;11.422;2023-10-13T00:52:40;16.70;85.80
33476;DHT22;19814;48.224;11.422;2023-10-13T00:55:07;16.60;85.80
33476;DHT22;19814;48.224;11.422;2023-10-13T00:57:35;16.50;86.30
33476;DHT22;19814;48.224;11.422;2023-10-13T01:00:02;16.40;86.80
33476;DHT22;19814;48.224;11.422;2023-10-13T01:02:44;16.30;87.60
33476;DHT22;19814;48.224;11.422;2023-10-13T01:05:10;16.20;87.90
33476;DHT22;19814;48.224;11.422;2023-10-13T01:07:45;16.10;88.70
33476;DHT22;19814;48.224;11.422;2023-10-13T01:10:11;16.00;89.70
33476;DHT22;19814;48.224;11.422;2023-10-13T01:12:40;16.00;90.00
33476;DHT22;19814;48.224;11.422;2023-10-13T01:15:09;15.90;90.00
33476;DHT22;19814;48.224;11.422;2023-10-13T01:17:37;15.90;90.10
33476;DHT22;19814;48.224;11.422;2023-10-13T01:20:03;15.80;90.20
33476;DHT22;19814;48.224;11.422;2023-10-13T01:22:31;15.80;90.40
33476;DHT22;19814;48.224;11.422;2023-10-13T01:24:58;15.80;90.60
33476;DHT22;19814;48.224;11.422;2023-10-13T01:27:44;15.80;90.80
33476;DHT22;19814;48.224;11.422;2023-10-13T01:30:14;15.70;90.70
33476;DHT22;19814;48.224;11.422;2023-10-13T01:32:51;15.70;91.00
33476;DHT22;19814;48.224;11.422;2023-10-13T01:35:17;15.70;91.10
33476;DHT22;19814;48.224;11.422;2023-10-13T01:37:51;15.70;91.10
33476;DHT22;19814;48.224;11.422;2023-10-13T01:40:17;15.60;91.20
33476;DHT22;19814;48.224;11.422;2023-10-13T01:42:45;15.60;91.20
33476;DHT22;19814;48.224;11.422;2023-10-13T01:45:11;15.60;91.20
33476;DHT22;19814;48.224;11.422;2023-10-13T01:47:39;15.60;91.30
33476;DHT22;19814;48.224;11.422;2023-10-13T01:50:06;15.50;91.60
33476;DHT22;19814;48.224;11.422;2023-10-13T01:52:39;15.50;91.70
33476;DHT22;19814;48.224;11.422;2023-10-13T01:55:07;15.50;92.00
33476;DHT22;19814;48.224;11.422;2023-10-13T01:57:35;15.40;92.10
33476;DHT22;19814;48.224;11.422;2023-10-13T02:00:01;15.50;92.20
33476;DHT22;19814;48.224;11.422;2023-10-13T02:02:36;15.40;92.10
33476;DHT22;19814;48.224;11.422;2023-10-13T02:05:10;15.40;92.10
33476;DHT22;19814;48.224;11.422;2023-10-13T02:07:35;15.50;92.20
33476;DHT22;19814;48.224;11.422;2023-10-13T02:10:04;15.50;92.20
33476;DHT22;19814;48.224;11.422;2023-10-13T02:12:31;15.50;92.10
33476;DHT22;19814;48.224;11.422;2023-10-13T02:15:19;15.40;92.40
33476;DHT22;19814;48.224;11.422;2023-10-13T02:17:52;15.40;92.20
33476;DHT22;19814;48.224;11.422;2023-10-13T02:20:20;15.40;92.20
33476;DHT22;19814;48.224;11.422;2023-10-13T02:22:52;15.40;92.00
33476;DHT22;19814;48.224;11.422;2023-10-13T02:25:19;15.30;92.00
33476;DHT22;19814;48.224;11.422;2023-10-13T02:28:11;15.30;92.10
33476;DHT22;19814;48.224;11.422;2023-10-13T02:30:41;15.20;92.40
33476;DHT22;19814;48.224;11.422;2023-10-13T02:33:10;15.10;92.40
33476;DHT22;19814;48.224;11.422;2023-10-13T02:35:37;15.10;92.60
33476;DHT22;19814;48.224;11.422;2023-10-13T02:38:07;15.00;92.70
33476;DHT22;19814;48.224;11.422;2023-10-13T02:40:37;14.90;92.90
33476;DHT22;19814;48.224;11.422;2023-10-13T02:43:03;14.80;93.20
33476;DHT22;19814;48.224;11.422;2023-10-13T02:45:31;14.80;93.30
33476;DHT22;19814;48.224;11.422;2023-10-13T02:47:57;14.80;93.60
33476;DHT22;19814;48.224;11.422;2023-10-13T02:50:41;14.70;93.70
33476;DHT22;19814;48.224;11.422;2023-10-13T02:53:11;14.70;94.00
33476;DHT22;19814;48.224;11.422;2023-10-13T02:55:56;14.60;94.00
33476;DHT22;19814;48.224;11.422;2023-10-13T02:58:30;14.60;94.00
33476;DHT22;19814;48.224;11.422;2023-10-13T03:01:08;14.50;94.00
33476;DHT22;19814;48.224;11.422;2023-10-13T03:03:50;14.50;94.00
33476;DHT22;19814;48.224;11.422;2023-10-13T03:06:20;14.50;93.50
33476;DHT22;19814;48.224;11.422;2023-10-13T03:09:02;14.50;93.60
33476;DHT22;19814;48.224;11.422;2023-10-13T03:11:43;14.40;93.60
33476;DHT22;19814;48.224;11.422;2023-10-13T03:17:01;14.30;93.70
33476;DHT22;19814;48.224;11.422;2023-10-13T03:19:30;14.30;93.70
33476;DHT22;19814;48.224;11.422;2023-10-13T03:21:59;14.30;93.50
33476;DHT22;19814;48.224;11.422;2023-10-13T03:24:31;14.30;93.50
33476;DHT22;19814;48.224;11.422;2023-10-13T03:27:03;14.30;93.50
33476;DHT22;19814;48.224;11.422;2023-10-13T03:29:38;14.20;93.80
33476;DHT22;19814;48.224;11.422;2023-10-13T03:32:14;14.10;94.00
33476;DHT22;19814;48.224;11.422;2023-10-13T03:34:41;14.00;94.30
33476;DHT22;19814;48.224;11.422;2023-10-13T03:37:20;14.00;94.40
33476;DHT22;19814;48.224;11.422;2023-10-13T03:40:11;13.90;94.50
33476;DHT22;19814;48.224;11.422;2023-10-13T03:42:47;13.90;94.50
33476;DHT22;19814;48.224;11.422;2023-10-13T03:45:42;13.90;94.70
33476;DHT22;19814;48.224;11.422;2023-10-13T03:48:13;13.80;94.70
33476;DHT22;19814;48.224;11.422;2023-10-13T03:50:58;13.80;94.90
33476;DHT22;19814;48.224;11.422;2023-10-13T03:53:35;13.70;94.70
33476;DHT22;19814;48.224;11.422;2023-10-13T03:56:06;13.70;94.90
33476;DHT22;19814;48.224;11.422;2023-10-13T03:58:40;13.60;94.80
33476;DHT22;19814;48.224;11.422;2023-10-13T04:01:12;13.60;94.90
33476;DHT22;19814;48.224;11.422;2023-10-13T04:03:41;13.60;95.10
33476;DHT22;19814;48.224;11.422;2023-10-13T04:06:23;13.50;95.10
33476;DHT22;19814;48.224;11.422;2023-10-13T04:09:09;13.50;95.30
33476;DHT22;19814;48.224;11.422;2023-10-13T04:12:05;13.40;95.60
33476;DHT22;19814;48.224;11.422;2023-10-13T04:14:32;13.30;95.70
33476;DHT22;19814;48.224;11.422;2023-10-13T04:17:16;13.30;95.70
33476;DHT22;19814;48.224;11.422;2023-10-13T04:19:50;13.30;95.80
33476;DHT22;19814;48.224;11.422;2023-10-13T04:22:44;13.30;96.10
33476;DHT22;19814;48.224;11.422;2023-10-13T04:25:22;13.30;95.90
33476;DHT22;19814;48.224;11.422;2023-10-13T04:28:08;13.30;96.00
33476;DHT22;19814;48.224;11.422;2023-10-13T04:33:27;13.40;96.20
33476;DHT22;19814;48.224;11.422;2023-10-13T04:36:12;13.30;95.90
33476;DHT22;19814;48.224;11.422;2023-10-13T04:38:51;13.30;96.10
33476;DHT22;19814;48.224;11.422;2023-10-13T04:41:27;13.20;96.20
33476;DHT22;19814;48.224;11.422;2023-10-13T04:44:05;13.10;96.30
33476;DHT22;19814;48.224;11.422;2023-10-13T04:46:49;13.00;96.30
33476;DHT22;19814;48.224;11.422;2023-10-13T04:49:15;13.00;96.70
33476;DHT22;19814;48.224;11.422;2023-10-13T04:52:00;13.00;96.70
33476;DHT22;19814;48.224;11.422;2023-10-13T04:54:44;13.00;96.80
33476;DHT22;19814;48.224;11.422;2023-10-13T04:57:17;12.90;96.90
33476;DHT22;19814;48.224;11.422;2023-10-13T04:59:56;12.90;97.10
33476;DHT22;19814;48.224;11.422;2023-10-13T05:02:37;12.80;97.10
33476;DHT22;19814;48.224;11.422;2023-10-13T05:05:13;12.80;97.30
33476;DHT22;19814;48.224;11.422;2023-10-13T05:07:51;12.80;97.40
33476;DHT22;19814;48.224;11.422;2023-10-13T05:10:36;12.80;97.30
33476;DHT22;19814;48.224;11.422;2023-10-13T05:13:20;12.90;97.20
33476;DHT22;19814;48.224;11.422;2023-10-13T05:16:05;13.00;97.10
33476;DHT22;19814;48.224;11.422;2023-10-13T05:18:49;13.00;97.10
33476;DHT22;19814;48.224;11.422;2023-10-13T05:21:33;13.00;96.70
33476;DHT22;19814;48.224;11.422;2023-10-13T05:24:17;13.10;96.60
33476;DHT22;19814;48.224;11.422;2023-10-13T05:27:01;13.00;96.30
33476;DHT22;19814;48.224;11.422;2023-10-13T05:29:46;12.90;96.10
33476;DHT22;19814;48.224;11.422;2023-10-13T05:32:31;12.70;96.30
33476;DHT22;19814;48.224;11.422;2023-10-13T05:35:16;12.60;96.60
33476;DHT22;19814;48.224;11.422;2023-10-13T05:38:00;12.60;96.90
33476;DHT22;19814;48.224;11.422;2023-10-13T05:40:55;12.70;97.10
33476;DHT22;19814;48.224;11.422;2023-10-13T05:43:39;12.80;97.20
33476;DHT22;19814;48.224;11.422;2023-10-13T05:46:24;12.80;97.20
33476;DHT22;19814;48.224;11.422;2023-10-13T05:48:55;12.90;97.10
33476;DHT22;19814;48.224;11.422;2023-10-13T05:51:24;12.90;96.50
33476;DHT22;19814;48.224;11.422;2023-10-13T05:54:05;12.90;96.20
33476;DHT22;19814;48.224;11.422;2023-10-13T05:56:41;12.90;96.00
33476;DHT22;19814;48.224;11.422;2023-10-13T05:59:25;12.90;95.80
33476;DHT22;19814;48.224;11.422;2023-10-13T06:02:09;12.80;96.00
33476;DHT22;19814;48.224;11.422;2023-10-13T06:04:53;12.70;96.30
33476;DHT22;19814;48.224;11.422;2023-10-13T06:07:38;12.60;96.50
33476;DHT22;19814;48.224;11.422;2023-10-13T06:10:22;12.60;96.90
33476;DHT22;19814;48.224;11.422;2023-10-13T06:13:09;12.60;97.00
33476;DHT22;19814;48.224;11.422;2023-10-13T06:15:53;12.70;97.10
33476;DHT22;19814;48.224;11.422;2023-10-13T06:18:37;12.80;97.10
33476;DHT22;19814;48.224;11.422;2023-10-13T06:21:21;12.80;97.30
33476;DHT22;19814;48.224;11.422;2023-10-13T06:24:06;12.90;97.10
33476;DHT22;19814;48.224;11.422;2023-10-13T06:26:50;13.00;97.20
33476;DHT22;19814;48.224;11.422;2023-10-13T06:29:34;13.00;97.40
33476;DHT22;19814;48.224;11.422;2023-10-13T06:32:00;13.10;97.40
33476;DHT22;19814;48.224;11.422;2023-10-13T06:34:27;13.20;97.50
33476;DHT22;19814;48.224;11.422;2023-10-13T06:37:12;13.30;97.50
33476;DHT22;19814;48.224;11.422;2023-10-13T06:39:53;13.40;97.50
33476;DHT22;19814;48.224;11.422;2023-10-13T06:42:28;13.50;97.70
33476;DHT22;19814;48.224;11.422;2023-10-13T06:44:57;13.70;98.00
33476;DHT22;19814;48.224;11.422;2023-10-13T06:47:23;13.80;98.00
33476;DHT22;19814;48.224;11.422;2023-10-13T06:49:50;14.00;98.00
33476;DHT22;19814;48.224;11.422;2023-10-13T06:52:20;14.10;97.40
33476;DHT22;19814;48.224;11.422;2023-10-13T06:54:50;14.20;97.50
33476;DHT22;19814;48.224;11.422;2023-10-13T06:57:16;14.30;97.80
33476;DHT22;19814;48.224;11.422;2023-10-13T06:59:46;14.40;97.80
33476;DHT22;19814;48.224;11.422;2023-10-13T07:02:12;14.40;97.60
33476;DHT22;19814;48.224;11.422;2023-10-13T07:04:47;14.30;97.50
33476;DHT22;19814;48.224;11.422;2023-10-13T07:07:12;14.40;97.30
33476;DHT22;19814;48.224;11.422;2023-10-13T07:09:43;14.50;96.80
33476;DHT22;19814;48.224;11.422;2023-10-13T07:12:20;14.80;95.60
33476;DHT22;19814;48.224;11.422;2023-10-13T07:14:51;15.20;94.40
33476;DHT22;19814;48.224;11.422;2023-10-13T07:17:17;15.60;94.40
33476;DHT22;19814;48.224;11.422;2023-10-13T07:19:53;16.00;93.70
33476;DHT22;19814;48.224;11.422;2023-10-13T07:22:19;16.40;93.00
33476;DHT22;19814;48.224;11.422;2023-10-13T07:24:45;16.80;92.00
33476;DHT22;19814;48.224;11.422;2023-10-13T07:27:17;17.20;91.60
33476;DHT22;19814;48.224;11.422;2023-10-13T07:29:54;17.50;90.80
33476;DHT22;19814;48.224;11.422;2023-10-13T07:32:23;17.80;90.60
33476;DHT22;19814;48.224;11.422;2023-10-13T07:34:55;18.20;91.30
33476;DHT22;19814;48.224;11.422;2023-10-13T07:37:24;18.60;91.30
33476;DHT22;19814;48.224;11.422;2023-10-13T07:39:55;19.00;90.20
33476;DHT22;19814;48.224;11.422;2023-10-13T07:42:26;19.40;90.00
33476;DHT22;19814;48.224;11.422;2023-10-13T07:44:58;19.70;88.20
33476;DHT22;19814;48.224;11.422;2023-10-13T07:47:23;19.90;85.40
33476;DHT22;19814;48.224;11.422;2023-10-13T07:49:52;20.10;84.90
33476;DHT22;19814;48.224;11.422;2023-10-13T07:52:17;20.30;84.50
33476;DHT22;19814;48.224;11.422;2023-10-13T07:54:46;20.60;82.40
33476;DHT22;19814;48.224;11.422;2023-10-13T07:57:21;20.80;79.80
33476;DHT22;19814;48.224;11.422;2023-10-13T07:59:55;21.10;81.80
33476;DHT22;19814;48.224;11.422;2023-10-13T08:02:34;21.50;78.90
33476;DHT22;19814;48.224;11.422;2023-10-13T08:05:20;21.80;78.50
33476;DHT22;19814;48.224;11.422;2023-10-13T08:08:05;22.10;77.90
33476;DHT22;19814;48.224;11.422;2023-10-13T08:10:40;22.40;77.90
33476;DHT22;19814;48.224;11.422;2023-10-13T08:13:07;22.70;75.00
33476;DHT22;19814;48.224;11.422;2023-10-13T08:15:40;23.00;73.40
33476;DHT22;19814;48.224;11.422;2023-10-13T08:18:06;23.10;72.60
33476;DHT22;19814;48.224;11.422;2023-10-13T08:20:40;23.20;75.70
33476;DHT22;19814;48.224;11.422;2023-10-13T08:23:05;23.40;72.50
33476;DHT22;19814;48.224;11.422;2023-10-13T08:25:54;23.60;69.20
33476;DHT22;19814;48.224;11.422;2023-10-13T08:28:38;23.60;67.60
33476;DHT22;19814;48.224;11.422;2023-10-13T08:31:06;23.40;65.50
33476;DHT22;19814;48.224;11.422;2023-10-13T08:33:50;23.50;66.10
33476;DHT22;19814;48.224;11.422;2023-10-13T08:36:15;23.90;68.30
33476;DHT22;19814;48.224;11.422;2023-10-13T08:38:54;24.30;64.80
33476;DHT22;19814;48.224;11.422;2023-10-13T08:41:21;24.40;61.40
33476;DHT22;19814;48.224;11.422;2023-10-13T08:43:50;24.70;59.40
33476;DHT22;19814;48.224;11.422;2023-10-13T08:46:17;25.10;60.40
33476;DHT22;19814;48.224;11.422;2023-10-13T08:48:57;25.60;64.30
33476;DHT22;19814;48.224;11.422;2023-10-13T08:51:41;26.20;56.50
33476;DHT22;19814;48.224;11.422;2023-10-13T08:54:32;26.70;56.20
33476;DHT22;19814;48.224;11.422;2023-10-13T08:57:04;27.50;55.10
33476;DHT22;19814;48.224;11.422;2023-10-13T08:59:55;28.10;54.30
33476;DHT22;19814;48.224;11.422;2023-10-13T09:02:22;28.80;53.10
33476;DHT22;19814;48.224;11.422;2023-10-13T09:05:09;29.20;51.00
33476;DHT22;19814;48.224;11.422;2023-10-13T09:07:54;29.10;51.30
33476;DHT22;19814;48.224;11.422;2023-10-13T09:10:23;29.60;49.90
33476;DHT22;19814;48.224;11.422;2023-10-13T09:13:10;30.30;51.80
33476;DHT22;19814;48.224;11.422;2023-10-13T09:15:44;31.10;49.90
33476;DHT22;19814;48.224;11.422;2023-10-13T09:18:26;32.60;53.20
33476;DHT22;19814;48.224;11.422;2023-10-13T09:21:12;33.70;47.70
33476;DHT22;19814;48.224;11.422;2023-10-13T09:23:56;34.10;43.90
33476;DHT22;19814;48.224;11.422;2023-10-13T09:26:42;33.80;43.70
33476;DHT22;19814;48.224;11.422;2023-10-13T09:29:15;33.50;40.70
33476;DHT22;19814;48.224;11.422;2023-10-13T09:31:44;33.10;44.00
33476;DHT22;19814;48.224;11.422;2023-10-13T09:34:10;33.10;43.40
33476;DHT22;19814;48.224;11.422;2023-10-13T09:36:36;33.50;44.40
33476;DHT22;19814;48.224;11.422;2023-10-13T09:39:03;33.80;40.50
33476;DHT22;19814;48.224;11.422;2023-10-13T09:41:40;33.50;41.70
33476;DHT22;19814;48.224;11.422;2023-10-13T09:44:05;33.40;39.70
33476;DHT22;19814;48.224;11.422;2023-10-13T09:46:37;33.80;40.70
33476;DHT22;19814;48.224;11.422;2023-10-13T09:49:12;35.10;42.20
33476;DHT22;19814;48.224;11.422;2023-10-13T09:51:48;36.40;42.80
33476;DHT22;19814;48.224;11.422;2023-10-13T09:54:24;37.50;40.90
33476;DHT22;19814;48.224;11.422;2023-10-13T09:56:58;37.40;38.80
33476;DHT22;19814;48.224;11.422;2023-10-13T09:59:42;37.70;37.50
33476;DHT22;19814;48.224;11.422;2023-10-13T10:02:14;37.60;36.90
33476;DHT22;19814;48.224;11.422;2023-10-13T10:04:54;37.60;39.00
33476;DHT22;19814;48.224;11.422;2023-10-13T10:07:36;37.90;38.30
33476;DHT22;19814;48.224;11.422;2023-10-13T10:10:05;39.30;36.50
33476;DHT22;19814;48.224;11.422;2023-10-13T10:18:19;38.20;38.20
33476;DHT22;19814;48.224;11.422;2023-10-13T10:20:48;38.80;36.60
33476;DHT22;19814;48.224;11.422;2023-10-13T10:23:27;39.60;34.50
33476;DHT22;19814;48.224;11.422;2023-10-13T10:25:55;39.40;32.40
33476;DHT22;19814;48.224;11.422;2023-10-13T10:28:38;39.40;32.20
33476;DHT22;19814;48.224;11.422;2023-10-13T10:31:05;38.60;32.10
33476;DHT22;19814;48.224;11.422;2023-10-13T10:33:34;38.50;35.70
33476;DHT22;19814;48.224;11.422;2023-10-13T10:36:00;38.80;35.30
33476;DHT22;19814;48.224;11.422;2023-10-13T10:38:26;39.10;33.40
33476;DHT22;19814;48.224;11.422;2023-10-13T10:40:59;39.10;32.80
33476;DHT22;19814;48.224;11.422;2023-10-13T10:43:35;39.20;33.80
33476;DHT22;19814;48.224;11.422;2023-10-13T10:46:18;39.00;34.90
33476;DHT22;19814;48.224;11.422;2023-10-13T10:48:50;39.00;35.10
33476;DHT22;19814;48.224;11.422;2023-10-13T10:51:22;39.20;30.70
33476;DHT22;19814;48.224;11.422;2023-10-13T10:53:48;38.50;31.40
33476;DHT22;19814;48.224;11.422;2023-10-13T10:56:17;37.80;32.60
33476;DHT22;19814;48.224;11.422;2023-10-13T10:58:47;37.90;30.30
33476;DHT22;19814;48.224;11.422;2023-10-13T11:01:12;37.00;31.10
33476;DHT22;19814;48.224;11.422;2023-10-13T11:03:57;36.90;34.80
33476;DHT22;19814;48.224;11.422;2023-10-13T11:06:25;38.30;35.20
33476;DHT22;19814;48.224;11.422;2023-10-13T11:09:04;39.10;32.10
33476;DHT22;19814;48.224;11.422;2023-10-13T11:11:32;39.90;32.00
33476;DHT22;19814;48.224;11.422;2023-10-13T11:14:01;39.70;30.60
33476;DHT22;19814;48.224;11.422;2023-10-13T11:16:49;39.80;32.70
33476;DHT22;19814;48.224;11.422;2023-10-13T11:19:17;41.40;32.80
33476;DHT22;19814;48.224;11.422;2023-10-13T11:21:46;42.90;34.60
33476;DHT22;19814;48.224;11.422;2023-10-13T11:24:13;43.70;32.70
33476;DHT22;19814;48.224;11.422;2023-10-13T11:26:38;44.00;30.20
33476;DHT22;19814;48.224;11.422;2023-10-13T11:29:18;43.30;30.00
33476;DHT22;19814;48.224;11.422;2023-10-13T11:31:48;43.10;32.20
33476;DHT22;19814;48.224;11.422;2023-10-13T11:34:24;43.80;32.20
33476;DHT22;19814;48.224;11.422;2023-10-13T11:36:50;43.50;29.80
33476;DHT22;19814;48.224;11.422;2023-10-13T11:39:16;43.80;30.00
33476;DHT22;19814;48.224;11.422;2023-10-13T11:41:50;44.20;31.40
33476;DHT22;19814;48.224;11.422;2023-10-13T11:44:22;44.90;31.10
33476;DHT22;19814;48.224;11.422;2023-10-13T11:46:47;45.90;30.60
33476;DHT22;19814;48.224;11.422;2023-10-13T11:49:13;46.10;30.00
33476;DHT22;19814;48.224;11.422;2023-10-13T11:51:39;45.30;29.20
33476;DHT22;19814;48.224;11.422;2023-10-13T11:54:04;44.80;28.20
33476;DHT22;19814;48.224;11.422;2023-10-13T11:56:30;43.80;29.30
33476;DHT22;19814;48.224;11.422;2023-10-13T11:58:55;43.10;30.00
33476;DHT22;19814;48.224;11.422;2023-10-13T12:01:29;43.00;29.90
33476;DHT22;19814;48.224;11.422;2023-10-13T12:04:13;44.00;30.00
33476;DHT22;19814;48.224;11.422;2023-10-13T12:06:58;44.10;29.30
33476;DHT22;19814;48.224;11.422;2023-10-13T12:09:48;44.90;30.20
33476;DHT22;19814;48.224;11.422;2023-10-13T12:12:29;44.80;28.10
33476;DHT22;19814;48.224;11.422;2023-10-13T12:15:06;44.90;28.40
33476;DHT22;19814;48.224;11.422;2023-10-13T12:17:35;45.20;29.90
33476;DHT22;19814;48.224;11.422;2023-10-13T12:20:02;45.50;29.30
33476;DHT22;19814;48.224;11.422;2023-10-13T12:22:34;45.70;27.30
33476;DHT22;19814;48.224;11.422;2023-10-13T12:25:11;44.50;27.90
33476;DHT22;19814;48.224;11.422;2023-10-13T12:28:00;43.10;29.90
33476;DHT22;19814;48.224;11.422;2023-10-13T12:30:46;41.10;28.00
33476;DHT22;19814;48.224;11.422;2023-10-13T12:33:18;39.50;30.00
33476;DHT22;19814;48.224;11.422;2023-10-13T12:35:59;38.10;32.10
33476;DHT22;19814;48.224;11.422;2023-10-13T12:38:52;37.10;32.30
33476;DHT22;19814;48.224;11.422;2023-10-13T12:41:38;36.20;33.90
33476;DHT22;19814;48.224;11.422;2023-10-13T12:44:22;34.90;33.20
33476;DHT22;19814;48.224;11.422;2023-10-13T12:47:06;33.90;34.20
33476;DHT22;19814;48.224;11.422;2023-10-13T12:49:50;33.60;34.30
33476;DHT22;19814;48.224;11.422;2023-10-13T12:52:23;33.40;36.00
33476;DHT22;19814;48.224;11.422;2023-10-13T12:54:52;33.20;34.80
33476;DHT22;19814;48.224;11.422;2023-10-13T12:57:38;32.80;32.70
33476;DHT22;19814;48.224;11.422;2023-10-13T13:00:10;32.30;34.70
33476;DHT22;19814;48.224;11.422;2023-10-13T13:02:42;31.90;34.30
33476;DHT22;19814;48.224;11.422;2023-10-13T13:05:08;31.30;35.50
33476;DHT22;19814;48.224;11.422;2023-10-13T13:07:38;30.90;36.60
33476;DHT22;19814;48.224;11.422;2023-10-13T13:10:15;30.80;35.60
33476;DHT22;19814;48.224;11.422;2023-10-13T13:12:41;30.70;36.70
33476;DHT22;19814;48.224;11.422;2023-10-13T13:15:07;30.50;37.20
33476;DHT22;19814;48.224;11.422;2023-10-13T13:17:37;30.50;36.00
33476;DHT22;19814;48.224;11.422;2023-10-13T13:20:07;30.50;39.10
33476;DHT22;19814;48.224;11.422;2023-10-13T13:22:39;30.50;38.70
33476;DHT22;19814;48.224;11.422;2023-10-13T13:25:05;30.40;36.30
33476;DHT22;19814;48.224;11.422;2023-10-13T13:27:34;30.30;37.50
33476;DHT22;19814;48.224;11.422;2023-10-13T13:30:02;30.30;38.10
33476;DHT22;19814;48.224;11.422;2023-10-13T13:32:37;30.20;38.10
33476;DHT22;19814;48.224;11.422;2023-10-13T13:35:03;30.00;40.00
33476;DHT22;19814;48.224;11.422;2023-10-13T13:37:33;30.00;41.70
33476;DHT22;19814;48.224;11.422;2023-10-13T13:39:59;30.20;42.90
33476;DHT22;19814;48.224;11.422;2023-10-13T13:42:39;30.20;38.90
33476;DHT22;19814;48.224;11.422;2023-10-13T13:45:11;30.00;38.30
33476;DHT22;19814;48.224;11.422;2023-10-13T13:47:37;29.80;40.70
33476;DHT22;19814;48.224;11.422;2023-10-13T13:50:02;29.70;38.90
33476;DHT22;19814;48.224;11.422;2023-10-13T13:52:39;29.50;39.00
33476;DHT22;19814;48.224;11.422;2023-10-13T13:55:11;29.50;38.10
33476;DHT22;19814;48.224;11.422;2023-10-13T13:57:43;29.40;39.80
33476;DHT22;19814;48.224;11.422;2023-10-13T14:00:12;29.30;42.80
33476;DHT22;19814;48.224;11.422;2023-10-13T14:02:56;29.30;42.20
33476;DHT22;19814;48.224;11.422;2023-10-13T14:05:23;29.10;39.60
33476;DHT22;19814;48.224;11.422;2023-10-13T14:07:48;29.00;39.20
33476;DHT22;19814;48.224;11.422;2023-10-13T14:10:16;29.00;41.70
33476;DHT22;19814;48.224;11.422;2023-10-13T14:13:00;28.90;42.50
33476;DHT22;19814;48.224;11.422;2023-10-13T14:15:33;28.80;42.70
33476;DHT22;19814;48.224;11.422;2023-10-13T14:18:06;28.80;38.60
33476;DHT22;19814;48.224;11.422;2023-10-13T14:20:32;28.60;43.50
33476;DHT22;19814;48.224;11.422;2023-10-13T14:23:05;28.50;45.40
33476;DHT22;19814;48.224;11.422;2023-10-13T14:25:32;28.40;44.40
33476;DHT22;19814;48.224;11.422;2023-10-13T14:28:05;28.30;45.50
33476;DHT22;19814;48.224;11.422;2023-10-13T14:30:31;28.20;45.70
33476;DHT22;19814;48.224;11.422;2023-10-13T14:32:57;28.10;42.60
33476;DHT22;19814;48.224;11.422;2023-10-13T14:35:24;27.90;44.90
33476;DHT22;19814;48.224;11.422;2023-10-13T14:37:54;27.70;45.30
33476;DHT22;19814;48.224;11.422;2023-10-13T14:40:20;27.60;46.20
33476;DHT22;19814;48.224;11.422;2023-10-13T14:42:48;27.50;47.20
33476;DHT22;19814;48.224;11.422;2023-10-13T14:45:14;27.50;48.30
33476;DHT22;19814;48.224;11.422;2023-10-13T14:47:42;27.30;47.20
33476;DHT22;19814;48.224;11.422;2023-10-13T14:50:08;27.30;49.50
33476;DHT22;19814;48.224;11.422;2023-10-13T14:52:42;27.10;51.60
33476;DHT22;19814;48.224;11.422;2023-10-13T14:55:09;27.00;52.90
33476;DHT22;19814;48.224;11.422;2023-10-13T14:57:45;26.80;52.70
33476;DHT22;19814;48.224;11.422;2023-10-13T15:00:11;26.70;53.40
33476;DHT22;19814;48.224;11.422;2023-10-13T15:02:39;26.60;53.00
33476;DHT22;19814;48.224;11.422;2023-10-13T15:05:04;26.40;53.20
33476;DHT22;19814;48.224;11.422;2023-10-13T15:07:30;26.30;53.70
33476;DHT22;19814;48.224;11.422;2023-10-13T15:09:55;26.20;52.50
33476;DHT22;19814;48.224;11.422;2023-10-13T15:12:24;26.00;51.70
33476;DHT22;19814;48.224;11.422;2023-10-13T15:14:51;25.90;51.50
33476;DHT22;19814;48.224;11.422;2023-10-13T15:17:18;25.70;51.70
33476;DHT22;19814;48.224;11.422;2023-10-13T15:19:44;25.70;51.20
33476;DHT22;19814;48.224;11.422;2023-10-13T15:22:09;25.50;50.50
33476;DHT22;19814;48.224;11.422;2023-10-13T15:24:42;25.50;50.30
33476;DHT22;19814;48.224;11.422;2023-10-13T15:27:22;25.30;50.10
33476;DHT22;19814;48.224;11.422;2023-10-13T15:29:48;25.20;50.10
33476;DHT22;19814;48.224;11.422;2023-10-13T15:32:16;25.20;50.00
33476;DHT22;19814;48.224;11.422;2023-10-13T15:35:00;25.10;50.00
33476;DHT22;19814;48.224;11.422;2023-10-13T15:37:26;24.90;50.30
33476;DHT22;19814;48.224;11.422;2023-10-13T15:39:52;24.80;51.20
33476;DHT22;19814;48.224;11.422;2023-10-13T15:42:18;24.80;52.40
33476;DHT22;19814;48.224;11.422;2023-10-13T15:44:46;24.70;52.00
33476;DHT22;19814;48.224;11.422;2023-10-13T15:47:11;24.60;53.40
33476;DHT22;19814;48.224;11.422;2023-10-13T15:49:37;24.40;54.90
33476;DHT22;19814;48.224;11.422;2023-10-13T15:52:06;24.20;54.90
33476;DHT22;19814;48.224;11.422;2023-10-13T15:54:32;24.10;55.20
33476;DHT22;19814;48.224;11.422;2023-10-13T15:57:00;24.00;55.50
33476;DHT22;19814;48.224;11.422;2023-10-13T15:59:26;23.90;55.90
33476;DHT22;19814;48.224;11.422;2023-10-13T16:01:52;23.70;56.10
33476;DHT22;19814;48.224;11.422;2023-10-13T16:04:23;23.60;57.90
33476;DHT22;19814;48.224;11.422;2023-10-13T16:06:48;23.50;58.40